sensor_id;sensor_type;location;lat;lon;timestamp;P1;durP1;ratioP1;P2;durP2;ratioP2
76850;SDS011;65824;43.726;20.692;2023-02-28T00:01:22;42.20;;;18.42;;
76850;SDS011;65824;43.726;20.692;2023-02-28T00:03:47;39.67;;;16.95;;
76850;SDS011;65824;43.726;20.692;2023-02-28T00:06:14;42.55;;;19.17;;
76850;SDS011;65824;43.726;20.692;2023-02-28T00:08:39;42.90;;;18.77;;
76850;SDS011;65824;43.726;20.692;2023-02-28T00:11:07;47.05;;;19.73;;
76850;SDS011;65824;43.726;20.692;2023-02-28T00:13:35;40.10;;;18.05;;
76850;SDS011;65824;43.726;20.692;2023-02-28T00:16:05;39.78;;;18.08;;
76850;SDS011;65824;43.726;20.692;2023-02-28T00:18:36;41.33;;;17.95;;
76850;SDS011;65824;43.726;20.692;2023-02-28T00:21:02;40.20;;;18.60;;
76850;SDS011;65824;43.726;20.692;2023-02-28T00:23:28;41.53;;;18.13;;
76850;SDS011;65824;43.726;20.692;2023-02-28T00:25:54;42.78;;;18.73;;
76850;SDS011;65824;43.726;20.692;2023-02-28T00:28:20;44.83;;;19.90;;
76850;SDS011;65824;43.726;20.692;2023-02-28T00:30:47;41.88;;;19.00;;
76850;SDS011;65824;43.726;20.692;2023-02-28T00:33:14;43.28;;;18.73;;
76850;SDS011;65824;43.726;20.692;2023-02-28T00:35:40;41.65;;;18.40;;
76850;SDS011;65824;43.726;20.692;2023-02-28T00:38:06;43.88;;;18.38;;
76850;SDS011;65824;43.726;20.692;2023-02-28T00:40:31;45.63;;;20.50;;
76850;SDS011;65824;43.726;20.692;2023-02-28T00:42:58;47.22;;;18.92;;
76850;SDS011;65824;43.726;20.692;2023-02-28T00:45:23;40.97;;;17.77;;
76850;SDS011;65824;43.726;20.692;2023-02-28T00:47:48;44.55;;;18.92;;
76850;SDS011;65824;43.726;20.692;2023-02-28T00:50:18;42.75;;;19.23;;
76850;SDS011;65824;43.726;20.692;2023-02-28T00:52:45;45.47;;;20.02;;
76850;SDS011;65824;43.726;20.692;2023-02-28T00:55:13;48.20;;;20.30;;
76850;SDS011;65824;43.726;20.692;2023-02-28T00:57:39;43.00;;;18.90;;
76850;SDS011;65824;43.726;20.692;2023-02-28T01:00:06;53.78;;;22.08;;
76850;SDS011;65824;43.726;20.692;2023-02-28T01:02:32;53.45;;;22.27;;
76850;SDS011;65824;43.726;20.692;2023-02-28T01:04:57;54.88;;;22.13;;
76850;SDS011;65824;43.726;20.692;2023-02-28T01:07:23;55.70;;;22.10;;
76850;SDS011;65824;43.726;20.692;2023-02-28T01:09:48;47.28;;;20.33;;
76850;SDS011;65824;43.726;20.692;2023-02-28T01:12:14;50.45;;;20.90;;
76850;SDS011;65824;43.726;20.692;2023-02-28T01:14:39;42.58;;;18.98;;
76850;SDS011;65824;43.726;20.692;2023-02-28T01:17:05;43.80;;;19.77;;
76850;SDS011;65824;43.726;20.692;2023-02-28T01:19:31;41.75;;;19.40;;
76850;SDS011;65824;43.726;20.692;2023-02-28T01:22:02;49.38;;;19.70;;
76850;SDS011;65824;43.726;20.692;2023-02-28T01:24:28;45.40;;;20.30;;
76850;SDS011;65824;43.726;20.692;2023-02-28T01:26:54;47.90;;;20.38;;
76850;SDS011;65824;43.726;20.692;2023-02-28T01:29:20;48.22;;;21.30;;
76850;SDS011;65824;43.726;20.692;2023-02-28T01:31:47;54.40;;;22.10;;
76850;SDS011;65824;43.726;20.692;2023-02-28T01:34:12;49.53;;;21.45;;
76850;SDS011;65824;43.726;20.692;2023-02-28T01:36:38;49.08;;;21.50;;
76850;SDS011;65824;43.726;20.692;2023-02-28T01:39:03;51.38;;;20.48;;
76850;SDS011;65824;43.726;20.692;2023-02-28T01:41:33;53.42;;;22.52;;
76850;SDS011;65824;43.726;20.692;2023-02-28T01:47:02;52.72;;;21.50;;
76850;SDS011;65824;43.726;20.692;2023-02-28T01:49:28;49.75;;;21.00;;
76850;SDS011;65824;43.726;20.692;2023-02-28T01:51:56;47.88;;;20.60;;
76850;SDS011;65824;43.726;20.692;2023-02-28T01:54:26;54.38;;;22.40;;
76850;SDS011;65824;43.726;20.692;2023-02-28T01:56:58;54.35;;;22.80;;
76850;SDS011;65824;43.726;20.692;2023-02-28T02:00:09;51.92;;;22.77;;
76850;SDS011;65824;43.726;20.692;2023-02-28T02:02:34;50.65;;;21.33;;
76850;SDS011;65824;43.726;20.692;2023-02-28T02:05:05;55.17;;;22.88;;
76850;SDS011;65824;43.726;20.692;2023-02-28T02:07:34;49.75;;;22.38;;
76850;SDS011;65824;43.726;20.692;2023-02-28T02:10:03;49.63;;;20.77;;
76850;SDS011;65824;43.726;20.692;2023-02-28T02:17:56;49.67;;;22.25;;
76850;SDS011;65824;43.726;20.692;2023-02-28T02:26:43;52.80;;;22.35;;
76850;SDS011;65824;43.726;20.692;2023-02-28T02:34:57;50.90;;;21.27;;
76850;SDS011;65824;43.726;20.692;2023-02-28T02:40:16;58.33;;;24.40;;
76850;SDS011;65824;43.726;20.692;2023-02-28T02:42:47;53.38;;;22.63;;
76850;SDS011;65824;43.726;20.692;2023-02-28T02:47:41;49.38;;;22.80;;
76850;SDS011;65824;43.726;20.692;2023-02-28T02:50:08;53.25;;;21.85;;
76850;SDS011;65824;43.726;20.692;2023-02-28T02:52:39;59.10;;;22.13;;
76850;SDS011;65824;43.726;20.692;2023-02-28T02:55:08;51.17;;;22.63;;
76850;SDS011;65824;43.726;20.692;2023-02-28T02:57:38;53.42;;;22.92;;
76850;SDS011;65824;43.726;20.692;2023-02-28T03:00:08;52.53;;;22.50;;
76850;SDS011;65824;43.726;20.692;2023-02-28T03:02:35;51.25;;;21.55;;
76850;SDS011;65824;43.726;20.692;2023-02-28T03:05:04;51.45;;;22.00;;
76850;SDS011;65824;43.726;20.692;2023-02-28T03:07:34;51.53;;;22.65;;
76850;SDS011;65824;43.726;20.692;2023-02-28T03:09:59;56.03;;;23.38;;
76850;SDS011;65824;43.726;20.692;2023-02-28T03:12:33;53.83;;;22.45;;
76850;SDS011;65824;43.726;20.692;2023-02-28T03:15:40;52.42;;;20.48;;
76850;SDS011;65824;43.726;20.692;2023-02-28T03:18:22;55.58;;;22.83;;
76850;SDS011;65824;43.726;20.692;2023-02-28T03:23:42;58.03;;;22.88;;
76850;SDS011;65824;43.726;20.692;2023-02-28T03:26:22;60.83;;;23.08;;
76850;SDS011;65824;43.726;20.692;2023-02-28T03:31:38;48.03;;;20.65;;
76850;SDS011;65824;43.726;20.692;2023-02-28T03:36:37;58.97;;;21.70;;
76850;SDS011;65824;43.726;20.692;2023-02-28T03:39:09;54.70;;;21.38;;
76850;SDS011;65824;43.726;20.692;2023-02-28T03:41:41;51.85;;;20.02;;
76850;SDS011;65824;43.726;20.692;2023-02-28T03:44:23;53.42;;;20.30;;
76850;SDS011;65824;43.726;20.692;2023-02-28T03:46:58;51.38;;;21.13;;
76850;SDS011;65824;43.726;20.692;2023-02-28T03:49:32;62.90;;;23.58;;
76850;SDS011;65824;43.726;20.692;2023-02-28T03:52:02;58.00;;;21.95;;
76850;SDS011;65824;43.726;20.692;2023-02-28T03:54:30;58.40;;;22.65;;
76850;SDS011;65824;43.726;20.692;2023-02-28T03:57:48;62.60;;;22.90;;
76850;SDS011;65824;43.726;20.692;2023-02-28T04:02:46;58.25;;;22.25;;
76850;SDS011;65824;43.726;20.692;2023-02-28T04:05:17;51.35;;;20.10;;
76850;SDS011;65824;43.726;20.692;2023-02-28T04:07:45;51.67;;;21.10;;
76850;SDS011;65824;43.726;20.692;2023-02-28T04:10:11;51.45;;;21.08;;
76850;SDS011;65824;43.726;20.692;2023-02-28T04:12:37;54.65;;;21.10;;
76850;SDS011;65824;43.726;20.692;2023-02-28T04:15:05;61.05;;;20.48;;
76850;SDS011;65824;43.726;20.692;2023-02-28T04:17:31;55.53;;;21.00;;
76850;SDS011;65824;43.726;20.692;2023-02-28T04:19:57;56.35;;;22.02;;
76850;SDS011;65824;43.726;20.692;2023-02-28T04:22:23;55.38;;;20.05;;
76850;SDS011;65824;43.726;20.692;2023-02-28T04:24:51;62.17;;;22.38;;
76850;SDS011;65824;43.726;20.692;2023-02-28T04:27:19;49.05;;;20.80;;
76850;SDS011;65824;43.726;20.692;2023-02-28T04:29:45;57.22;;;21.30;;
76850;SDS011;65824;43.726;20.692;2023-02-28T04:32:11;58.60;;;21.08;;
76850;SDS011;65824;43.726;20.692;2023-02-28T04:34:39;58.58;;;21.30;;
76850;SDS011;65824;43.726;20.692;2023-02-28T04:37:04;50.00;;;20.73;;
76850;SDS011;65824;43.726;20.692;2023-02-28T04:39:34;53.78;;;21.77;;
76850;SDS011;65824;43.726;20.692;2023-02-28T04:42:00;56.42;;;20.55;;
76850;SDS011;65824;43.726;20.692;2023-02-28T04:44:26;51.95;;;20.17;;
76850;SDS011;65824;43.726;20.692;2023-02-28T04:46:52;51.42;;;19.67;;
76850;SDS011;65824;43.726;20.692;2023-02-28T04:49:17;50.90;;;18.10;;
76850;SDS011;65824;43.726;20.692;2023-02-28T04:51:42;52.42;;;20.58;;
76850;SDS011;65824;43.726;20.692;2023-02-28T04:54:08;57.53;;;19.98;;
76850;SDS011;65824;43.726;20.692;2023-02-28T04:56:34;51.63;;;19.70;;
76850;SDS011;65824;43.726;20.692;2023-02-28T04:58:59;56.80;;;21.17;;
76850;SDS011;65824;43.726;20.692;2023-02-28T05:01:32;54.72;;;19.65;;
76850;SDS011;65824;43.726;20.692;2023-02-28T05:03:59;46.92;;;18.60;;
76850;SDS011;65824;43.726;20.692;2023-02-28T05:06:26;59.53;;;21.33;;
76850;SDS011;65824;43.726;20.692;2023-02-28T05:08:54;51.90;;;19.40;;
76850;SDS011;65824;43.726;20.692;2023-02-28T05:11:20;52.90;;;20.40;;
76850;SDS011;65824;43.726;20.692;2023-02-28T05:13:51;52.10;;;19.25;;
76850;SDS011;65824;43.726;20.692;2023-02-28T05:16:19;54.63;;;20.10;;
76850;SDS011;65824;43.726;20.692;2023-02-28T05:18:45;50.08;;;19.50;;
76850;SDS011;65824;43.726;20.692;2023-02-28T05:23:54;52.75;;;19.67;;
76850;SDS011;65824;43.726;20.692;2023-02-28T05:26:21;54.05;;;20.65;;
76850;SDS011;65824;43.726;20.692;2023-02-28T05:28:47;51.15;;;20.08;;
76850;SDS011;65824;43.726;20.692;2023-02-28T05:31:12;47.45;;;20.25;;
76850;SDS011;65824;43.726;20.692;2023-02-28T05:33:38;57.20;;;21.80;;
76850;SDS011;65824;43.726;20.692;2023-02-28T05:36:05;48.15;;;19.48;;
76850;SDS011;65824;43.726;20.692;2023-02-28T05:38:31;50.85;;;20.88;;
76850;SDS011;65824;43.726;20.692;2023-02-28T05:40:57;50.58;;;19.98;;
76850;SDS011;65824;43.726;20.692;2023-02-28T05:43:25;50.38;;;19.80;;
76850;SDS011;65824;43.726;20.692;2023-02-28T05:45:50;54.65;;;19.23;;
76850;SDS011;65824;43.726;20.692;2023-02-28T05:48:17;56.95;;;21.85;;
76850;SDS011;65824;43.726;20.692;2023-02-28T05:50:43;57.33;;;22.23;;
76850;SDS011;65824;43.726;20.692;2023-02-28T05:53:12;57.85;;;21.48;;
76850;SDS011;65824;43.726;20.692;2023-02-28T05:55:37;57.30;;;22.20;;
76850;SDS011;65824;43.726;20.692;2023-02-28T05:58:04;53.90;;;20.52;;
76850;SDS011;65824;43.726;20.692;2023-02-28T06:00:30;56.03;;;21.13;;
76850;SDS011;65824;43.726;20.692;2023-02-28T06:03:00;49.38;;;19.40;;
76850;SDS011;65824;43.726;20.692;2023-02-28T06:05:26;55.30;;;21.10;;
76850;SDS011;65824;43.726;20.692;2023-02-28T06:07:53;53.85;;;20.15;;
76850;SDS011;65824;43.726;20.692;2023-02-28T06:10:18;59.70;;;21.40;;
76850;SDS011;65824;43.726;20.692;2023-02-28T06:12:44;60.20;;;21.58;;
76850;SDS011;65824;43.726;20.692;2023-02-28T06:15:13;58.92;;;22.15;;
76850;SDS011;65824;43.726;20.692;2023-02-28T06:17:40;53.40;;;20.40;;
76850;SDS011;65824;43.726;20.692;2023-02-28T06:20:06;55.75;;;20.33;;
76850;SDS011;65824;43.726;20.692;2023-02-28T06:22:33;50.80;;;17.88;;
76850;SDS011;65824;43.726;20.692;2023-02-28T06:25:05;51.65;;;18.58;;
76850;SDS011;65824;43.726;20.692;2023-02-28T06:27:32;49.80;;;18.65;;
76850;SDS011;65824;43.726;20.692;2023-02-28T06:29:58;51.13;;;19.40;;
76850;SDS011;65824;43.726;20.692;2023-02-28T06:32:24;49.13;;;18.55;;
76850;SDS011;65824;43.726;20.692;2023-02-28T06:34:50;51.17;;;18.42;;
76850;SDS011;65824;43.726;20.692;2023-02-28T06:37:16;56.90;;;21.40;;
76850;SDS011;65824;43.726;20.692;2023-02-28T06:39:42;58.72;;;21.17;;
76850;SDS011;65824;43.726;20.692;2023-02-28T06:42:08;46.03;;;17.40;;
76850;SDS011;65824;43.726;20.692;2023-02-28T06:44:35;48.65;;;18.55;;
76850;SDS011;65824;43.726;20.692;2023-02-28T06:47:02;55.03;;;19.65;;
76850;SDS011;65824;43.726;20.692;2023-02-28T06:49:29;52.38;;;20.10;;
76850;SDS011;65824;43.726;20.692;2023-02-28T06:51:57;50.83;;;19.27;;
76850;SDS011;65824;43.726;20.692;2023-02-28T06:54:22;50.08;;;19.38;;
76850;SDS011;65824;43.726;20.692;2023-02-28T06:56:48;54.95;;;19.02;;
76850;SDS011;65824;43.726;20.692;2023-02-28T06:59:17;56.00;;;20.30;;
76850;SDS011;65824;43.726;20.692;2023-02-28T07:01:42;61.58;;;22.83;;
76850;SDS011;65824;43.726;20.692;2023-02-28T07:04:09;51.13;;;17.88;;
76850;SDS011;65824;43.726;20.692;2023-02-28T07:06:35;40.30;;;15.13;;
76850;SDS011;65824;43.726;20.692;2023-02-28T07:09:01;45.95;;;16.55;;
76850;SDS011;65824;43.726;20.692;2023-02-28T07:11:27;40.95;;;15.10;;
76850;SDS011;65824;43.726;20.692;2023-02-28T07:13:55;52.88;;;16.73;;
76850;SDS011;65824;43.726;20.692;2023-02-28T07:16:22;48.00;;;17.75;;
76850;SDS011;65824;43.726;20.692;2023-02-28T07:18:51;52.10;;;17.65;;
76850;SDS011;65824;43.726;20.692;2023-02-28T07:21:17;48.47;;;16.73;;
76850;SDS011;65824;43.726;20.692;2023-02-28T07:23:44;47.58;;;17.80;;
76850;SDS011;65824;43.726;20.692;2023-02-28T07:26:14;57.35;;;18.60;;
76850;SDS011;65824;43.726;20.692;2023-02-28T07:28:43;53.53;;;19.50;;
76850;SDS011;65824;43.726;20.692;2023-02-28T07:31:11;59.28;;;19.95;;
76850;SDS011;65824;43.726;20.692;2023-02-28T07:33:42;70.38;;;26.92;;
76850;SDS011;65824;43.726;20.692;2023-02-28T07:36:09;63.05;;;23.02;;
76850;SDS011;65824;43.726;20.692;2023-02-28T07:38:40;57.90;;;20.23;;
76850;SDS011;65824;43.726;20.692;2023-02-28T07:41:06;51.85;;;19.38;;
76850;SDS011;65824;43.726;20.692;2023-02-28T07:43:33;61.40;;;21.95;;
76850;SDS011;65824;43.726;20.692;2023-02-28T07:46:03;53.15;;;20.52;;
76850;SDS011;65824;43.726;20.692;2023-02-28T07:48:33;58.20;;;21.20;;
76850;SDS011;65824;43.726;20.692;2023-02-28T07:50:59;58.80;;;22.42;;
76850;SDS011;65824;43.726;20.692;2023-02-28T07:53:25;55.95;;;19.73;;
76850;SDS011;65824;43.726;20.692;2023-02-28T07:55:54;55.55;;;20.23;;
76850;SDS011;65824;43.726;20.692;2023-02-28T07:58:21;53.85;;;21.67;;
76850;SDS011;65824;43.726;20.692;2023-02-28T08:00:49;58.85;;;21.50;;
76850;SDS011;65824;43.726;20.692;2023-02-28T08:03:15;52.80;;;19.58;;
76850;SDS011;65824;43.726;20.692;2023-02-28T08:05:43;54.97;;;19.65;;
76850;SDS011;65824;43.726;20.692;2023-02-28T08:08:09;64.50;;;23.23;;
76850;SDS011;65824;43.726;20.692;2023-02-28T08:10:35;57.05;;;22.38;;
76850;SDS011;65824;43.726;20.692;2023-02-28T08:13:03;67.20;;;26.08;;
76850;SDS011;65824;43.726;20.692;2023-02-28T08:15:28;57.70;;;21.05;;
76850;SDS011;65824;43.726;20.692;2023-02-28T08:17:56;54.42;;;20.00;;
76850;SDS011;65824;43.726;20.692;2023-02-28T08:20:23;52.42;;;19.38;;
76850;SDS011;65824;43.726;20.692;2023-02-28T08:22:49;55.05;;;21.00;;
76850;SDS011;65824;43.726;20.692;2023-02-28T08:25:17;61.33;;;20.98;;
76850;SDS011;65824;43.726;20.692;2023-02-28T08:27:43;66.82;;;23.65;;
76850;SDS011;65824;43.726;20.692;2023-02-28T08:30:12;63.28;;;24.80;;
76850;SDS011;65824;43.726;20.692;2023-02-28T08:32:42;61.53;;;21.95;;
76850;SDS011;65824;43.726;20.692;2023-02-28T08:35:46;51.10;;;19.25;;
76850;SDS011;65824;43.726;20.692;2023-02-28T08:38:23;61.83;;;21.92;;
76850;SDS011;65824;43.726;20.692;2023-02-28T08:41:12;56.83;;;21.35;;
76850;SDS011;65824;43.726;20.692;2023-02-28T08:43:39;57.20;;;20.80;;
76850;SDS011;65824;43.726;20.692;2023-02-28T08:46:05;54.72;;;20.17;;
76850;SDS011;65824;43.726;20.692;2023-02-28T08:48:32;58.85;;;22.83;;
76850;SDS011;65824;43.726;20.692;2023-02-28T08:51:00;54.92;;;22.13;;
76850;SDS011;65824;43.726;20.692;2023-02-28T08:53:31;64.32;;;22.52;;
76850;SDS011;65824;43.726;20.692;2023-02-28T08:55:58;52.90;;;19.98;;
76850;SDS011;65824;43.726;20.692;2023-02-28T08:58:24;44.95;;;17.10;;
76850;SDS011;65824;43.726;20.692;2023-02-28T09:00:50;50.80;;;19.30;;
76850;SDS011;65824;43.726;20.692;2023-02-28T09:03:15;47.65;;;20.67;;
76850;SDS011;65824;43.726;20.692;2023-02-28T09:05:51;50.53;;;19.35;;
76850;SDS011;65824;43.726;20.692;2023-02-28T09:08:19;51.58;;;21.23;;
76850;SDS011;65824;43.726;20.692;2023-02-28T09:10:48;52.08;;;20.85;;
76850;SDS011;65824;43.726;20.692;2023-02-28T09:13:14;45.47;;;16.30;;
76850;SDS011;65824;43.726;20.692;2023-02-28T09:15:40;39.60;;;15.73;;
76850;SDS011;65824;43.726;20.692;2023-02-28T09:18:07;42.10;;;16.08;;
76850;SDS011;65824;43.726;20.692;2023-02-28T09:20:33;31.65;;;14.20;;
76850;SDS011;65824;43.726;20.692;2023-02-28T09:22:59;37.85;;;14.32;;
76850;SDS011;65824;43.726;20.692;2023-02-28T09:25:24;40.83;;;15.90;;
76850;SDS011;65824;43.726;20.692;2023-02-28T09:27:50;34.28;;;14.30;;
76850;SDS011;65824;43.726;20.692;2023-02-28T09:30:16;43.08;;;17.83;;
76850;SDS011;65824;43.726;20.692;2023-02-28T09:32:43;42.38;;;18.08;;
76850;SDS011;65824;43.726;20.692;2023-02-28T09:35:16;42.10;;;16.83;;
76850;SDS011;65824;43.726;20.692;2023-02-28T09:37:49;38.92;;;15.95;;
76850;SDS011;65824;43.726;20.692;2023-02-28T09:40:19;39.55;;;16.23;;
76850;SDS011;65824;43.726;20.692;2023-02-28T09:42:50;39.15;;;14.95;;
76850;SDS011;65824;43.726;20.692;2023-02-28T09:45:22;36.92;;;14.73;;
76850;SDS011;65824;43.726;20.692;2023-02-28T09:47:56;38.97;;;14.90;;
76850;SDS011;65824;43.726;20.692;2023-02-28T09:50:39;42.63;;;15.65;;
76850;SDS011;65824;43.726;20.692;2023-02-28T09:53:29;39.13;;;14.13;;
76850;SDS011;65824;43.726;20.692;2023-02-28T09:56:07;40.65;;;15.40;;
76850;SDS011;65824;43.726;20.692;2023-02-28T09:58:41;43.92;;;16.10;;
76850;SDS011;65824;43.726;20.692;2023-02-28T10:01:18;42.88;;;18.15;;
76850;SDS011;65824;43.726;20.692;2023-02-28T10:06:28;37.70;;;15.18;;
76850;SDS011;65824;43.726;20.692;2023-02-28T10:09:03;40.45;;;17.08;;
76850;SDS011;65824;43.726;20.692;2023-02-28T10:11:34;47.13;;;18.10;;
76850;SDS011;65824;43.726;20.692;2023-02-28T10:14:02;40.40;;;17.80;;
76850;SDS011;65824;43.726;20.692;2023-02-28T10:25:11;39.70;;;16.00;;
76850;SDS011;65824;43.726;20.692;2023-02-28T10:27:47;45.90;;;16.92;;
76850;SDS011;65824;43.726;20.692;2023-02-28T10:30:12;36.38;;;15.00;;
76850;SDS011;65824;43.726;20.692;2023-02-28T10:32:39;50.20;;;18.23;;
76850;SDS011;65824;43.726;20.692;2023-02-28T10:35:16;37.42;;;16.70;;
76850;SDS011;65824;43.726;20.692;2023-02-28T10:37:46;38.45;;;16.05;;
76850;SDS011;65824;43.726;20.692;2023-02-28T10:45:34;40.03;;;16.13;;
76850;SDS011;65824;43.726;20.692;2023-02-28T10:58:30;44.30;;;18.35;;
76850;SDS011;65824;43.726;20.692;2023-02-28T11:03:55;48.53;;;19.38;;
76850;SDS011;65824;43.726;20.692;2023-02-28T11:06:26;40.97;;;16.98;;
76850;SDS011;65824;43.726;20.692;2023-02-28T11:08:53;43.83;;;16.98;;
76850;SDS011;65824;43.726;20.692;2023-02-28T11:11:29;44.10;;;17.90;;
76850;SDS011;65824;43.726;20.692;2023-02-28T11:14:02;44.38;;;18.48;;
76850;SDS011;65824;43.726;20.692;2023-02-28T11:16:34;47.63;;;20.25;;
76850;SDS011;65824;43.726;20.692;2023-02-28T11:19:02;48.58;;;19.98;;
76850;SDS011;65824;43.726;20.692;2023-02-28T11:24:03;49.00;;;18.20;;
76850;SDS011;65824;43.726;20.692;2023-02-28T11:26:38;42.45;;;16.40;;
76850;SDS011;65824;43.726;20.692;2023-02-28T11:29:24;42.13;;;18.08;;
76850;SDS011;65824;43.726;20.692;2023-02-28T11:34:45;44.60;;;18.00;;
76850;SDS011;65824;43.726;20.692;2023-02-28T11:37:18;47.35;;;18.00;;
76850;SDS011;65824;43.726;20.692;2023-02-28T11:39:45;43.17;;;18.48;;
76850;SDS011;65824;43.726;20.692;2023-02-28T11:42:31;37.53;;;16.48;;
76850;SDS011;65824;43.726;20.692;2023-02-28T11:56:19;43.05;;;17.15;;
76850;SDS011;65824;43.726;20.692;2023-02-28T12:06:57;35.10;;;15.02;;
76850;SDS011;65824;43.726;20.692;2023-02-28T12:14:49;52.40;;;19.23;;
76850;SDS011;65824;43.726;20.692;2023-02-28T12:20:42;55.00;;;21.83;;
76850;SDS011;65824;43.726;20.692;2023-02-28T12:29:00;50.75;;;20.52;;
76850;SDS011;65824;43.726;20.692;2023-02-28T12:40:21;45.50;;;18.58;;
76850;SDS011;65824;43.726;20.692;2023-02-28T12:42:58;46.08;;;20.08;;
76850;SDS011;65824;43.726;20.692;2023-02-28T12:45:40;53.33;;;21.58;;
76850;SDS011;65824;43.726;20.692;2023-02-28T12:48:47;49.15;;;19.23;;
76850;SDS011;65824;43.726;20.692;2023-02-28T12:51:16;46.30;;;19.63;;
76850;SDS011;65824;43.726;20.692;2023-02-28T12:53:52;43.33;;;19.30;;
76850;SDS011;65824;43.726;20.692;2023-02-28T12:59:07;47.67;;;19.75;;
76850;SDS011;65824;43.726;20.692;2023-02-28T13:02:02;40.22;;;18.10;;
76850;SDS011;65824;43.726;20.692;2023-02-28T13:10:56;37.85;;;15.85;;
76850;SDS011;65824;43.726;20.692;2023-02-28T13:13:24;38.17;;;17.45;;
76850;SDS011;65824;43.726;20.692;2023-02-28T13:16:08;39.05;;;18.05;;
76850;SDS011;65824;43.726;20.692;2023-02-28T13:18:37;38.78;;;16.92;;
76850;SDS011;65824;43.726;20.692;2023-02-28T13:21:10;38.83;;;17.10;;
76850;SDS011;65824;43.726;20.692;2023-02-28T13:37:36;36.22;;;17.30;;
76850;SDS011;65824;43.726;20.692;2023-02-28T13:42:48;41.05;;;18.52;;
76850;SDS011;65824;43.726;20.692;2023-02-28T13:45:21;40.15;;;17.88;;
76850;SDS011;65824;43.726;20.692;2023-02-28T13:47:58;42.08;;;19.42;;
76850;SDS011;65824;43.726;20.692;2023-02-28T13:58:39;38.92;;;18.92;;
76850;SDS011;65824;43.726;20.692;2023-02-28T14:07:43;33.33;;;15.75;;
76850;SDS011;65824;43.726;20.692;2023-02-28T14:11:03;33.20;;;14.80;;
76850;SDS011;65824;43.726;20.692;2023-02-28T14:16:09;28.55;;;13.50;;
76850;SDS011;65824;43.726;20.692;2023-02-28T14:21:25;29.00;;;14.13;;
76850;SDS011;65824;43.726;20.692;2023-02-28T14:36:18;32.80;;;16.10;;
76850;SDS011;65824;43.726;20.692;2023-02-28T14:39:14;38.45;;;16.60;;
76850;SDS011;65824;43.726;20.692;2023-02-28T14:41:44;37.30;;;17.15;;
76850;SDS011;65824;43.726;20.692;2023-02-28T14:44:20;35.85;;;16.48;;
76850;SDS011;65824;43.726;20.692;2023-02-28T14:47:20;33.40;;;16.65;;
76850;SDS011;65824;43.726;20.692;2023-02-28T14:49:46;30.85;;;16.38;;
76850;SDS011;65824;43.726;20.692;2023-02-28T14:52:29;41.65;;;18.27;;
76850;SDS011;65824;43.726;20.692;2023-02-28T14:55:03;35.10;;;17.00;;
76850;SDS011;65824;43.726;20.692;2023-02-28T14:57:33;34.78;;;16.73;;
76850;SDS011;65824;43.726;20.692;2023-02-28T15:00:04;30.40;;;14.90;;
76850;SDS011;65824;43.726;20.692;2023-02-28T15:02:38;32.30;;;14.77;;
76850;SDS011;65824;43.726;20.692;2023-02-28T15:08:15;35.00;;;16.45;;
76850;SDS011;65824;43.726;20.692;2023-02-28T15:10:45;31.35;;;16.38;;
76850;SDS011;65824;43.726;20.692;2023-02-28T15:13:36;33.60;;;16.92;;
76850;SDS011;65824;43.726;20.692;2023-02-28T15:16:08;27.70;;;14.63;;
76850;SDS011;65824;43.726;20.692;2023-02-28T15:18:50;33.95;;;16.77;;
76850;SDS011;65824;43.726;20.692;2023-02-28T15:29:51;31.38;;;14.20;;
76850;SDS011;65824;43.726;20.692;2023-02-28T15:32:31;30.98;;;14.70;;
76850;SDS011;65824;43.726;20.692;2023-02-28T15:34:58;28.98;;;14.85;;
76850;SDS011;65824;43.726;20.692;2023-02-28T15:42:57;30.15;;;15.80;;
76850;SDS011;65824;43.726;20.692;2023-02-28T15:45:32;29.73;;;14.70;;
76850;SDS011;65824;43.726;20.692;2023-02-28T15:48:05;33.15;;;16.35;;
76850;SDS011;65824;43.726;20.692;2023-02-28T15:50:41;31.50;;;17.23;;
76850;SDS011;65824;43.726;20.692;2023-02-28T15:53:12;34.78;;;16.35;;
76850;SDS011;65824;43.726;20.692;2023-02-28T15:55:38;34.17;;;15.77;;
76850;SDS011;65824;43.726;20.692;2023-02-28T15:58:08;32.83;;;15.60;;
76850;SDS011;65824;43.726;20.692;2023-02-28T16:00:38;31.15;;;16.13;;
76850;SDS011;65824;43.726;20.692;2023-02-28T16:06:23;37.97;;;16.98;;
76850;SDS011;65824;43.726;20.692;2023-02-28T16:08:52;35.22;;;17.08;;
76850;SDS011;65824;43.726;20.692;2023-02-28T16:11:20;31.50;;;16.67;;
76850;SDS011;65824;43.726;20.692;2023-02-28T16:13:46;39.42;;;19.75;;
76850;SDS011;65824;43.726;20.692;2023-02-28T16:16:19;37.40;;;18.30;;
76850;SDS011;65824;43.726;20.692;2023-02-28T16:18:46;38.83;;;19.10;;
76850;SDS011;65824;43.726;20.692;2023-02-28T16:21:11;39.53;;;18.65;;
76850;SDS011;65824;43.726;20.692;2023-02-28T16:23:39;34.30;;;18.33;;
76850;SDS011;65824;43.726;20.692;2023-02-28T16:26:08;40.85;;;21.00;;
76850;SDS011;65824;43.726;20.692;2023-02-28T16:28:44;38.05;;;19.27;;
76850;SDS011;65824;43.726;20.692;2023-02-28T16:31:10;35.15;;;17.88;;
76850;SDS011;65824;43.726;20.692;2023-02-28T16:33:41;29.65;;;14.52;;
76850;SDS011;65824;43.726;20.692;2023-02-28T16:36:13;31.40;;;15.00;;
76850;SDS011;65824;43.726;20.692;2023-02-28T16:38:55;34.83;;;16.23;;
76850;SDS011;65824;43.726;20.692;2023-02-28T16:41:21;33.58;;;16.98;;
76850;SDS011;65824;43.726;20.692;2023-02-28T16:43:50;33.53;;;15.77;;
76850;SDS011;65824;43.726;20.692;2023-02-28T16:46:19;29.80;;;15.13;;
76850;SDS011;65824;43.726;20.692;2023-02-28T16:48:46;31.92;;;14.90;;
76850;SDS011;65824;43.726;20.692;2023-02-28T16:51:14;32.10;;;14.75;;
76850;SDS011;65824;43.726;20.692;2023-02-28T16:53:40;31.95;;;15.10;;
76850;SDS011;65824;43.726;20.692;2023-02-28T16:56:08;29.50;;;14.90;;
76850;SDS011;65824;43.726;20.692;2023-02-28T16:58:54;29.98;;;14.68;;
76850;SDS011;65824;43.726;20.692;2023-02-28T17:01:22;31.58;;;14.38;;
76850;SDS011;65824;43.726;20.692;2023-02-28T17:03:48;29.85;;;14.90;;
76850;SDS011;65824;43.726;20.692;2023-02-28T17:06:16;32.08;;;14.50;;
76850;SDS011;65824;43.726;20.692;2023-02-28T17:08:47;27.58;;;14.15;;
76850;SDS011;65824;43.726;20.692;2023-02-28T17:11:14;27.95;;;13.45;;
76850;SDS011;65824;43.726;20.692;2023-02-28T17:13:42;29.88;;;14.45;;
76850;SDS011;65824;43.726;20.692;2023-02-28T17:16:15;30.75;;;15.30;;
76850;SDS011;65824;43.726;20.692;2023-02-28T17:18:49;29.98;;;13.93;;
76850;SDS011;65824;43.726;20.692;2023-02-28T17:21:16;30.90;;;14.38;;
76850;SDS011;65824;43.726;20.692;2023-02-28T17:23:47;30.55;;;14.85;;
76850;SDS011;65824;43.726;20.692;2023-02-28T17:26:17;31.25;;;14.63;;
76850;SDS011;65824;43.726;20.692;2023-02-28T17:28:47;30.70;;;14.57;;
76850;SDS011;65824;43.726;20.692;2023-02-28T17:31:15;36.53;;;15.65;;
76850;SDS011;65824;43.726;20.692;2023-02-28T17:33:45;33.03;;;16.75;;
76850;SDS011;65824;43.726;20.692;2023-02-28T17:36:14;35.88;;;16.67;;
76850;SDS011;65824;43.726;20.692;2023-02-28T17:38:42;38.15;;;18.33;;
76850;SDS011;65824;43.726;20.692;2023-02-28T17:41:11;38.72;;;21.23;;